Quai Moncousu Heliport

FR-0166 · Loira Atlantica, Paesi della Loira, Francia

Storia di METAR FR-0166 · Quai Moncousu Heliport

Di seguito sono riportati i METAR degli ultimi giorni. Seleziona un anno per sfogliare i METAR più vecchi, dall'anno 2007 in poi.

18 luglio 2024

Tempo Codice Tempo meteorologico Temp. Vista Base nuvolosa Vento METAR/SPECI
09:30
V
22 °C 10 km+ - 090° 090° 4 kt METAR LFRS 180730Z AUTO 09004KT 060V150 CAVOK 22/16 Q1018 NOSIG
09:00
V
20 °C 10 km+ - 060° 060° 3 kt METAR LFRS 180700Z AUTO 06003KT 360V120 CAVOK 20/15 Q1018 NOSIG
08:30
V
20 °C 10 km+ - 060° 060° 5 kt METAR LFRS 180630Z AUTO 06005KT 030V110 CAVOK 20/15 Q1018 NOSIG
08:00
V
18 °C 10 km+ - Var Var 3 kt METAR LFRS 180600Z AUTO VRB03KT CAVOK 18/15 Q1018 NOSIG
07:30
V
18 °C 10 km+ - Var Var 3 kt METAR LFRS 180530Z AUTO VRB03KT CAVOK 18/15 Q1018 NOSIG
07:00
V
18 °C 10 km+ - Var Var 3 kt METAR LFRS 180500Z AUTO VRB03KT CAVOK 18/15 Q1018 NOSIG
06:30
V
17 °C 10 km+ - Var Var 2 kt METAR LFRS 180430Z AUTO VRB02KT CAVOK 17/15 Q1018 NOSIG
06:00
V
17 °C 10 km+ - 040° 040° 3 kt METAR LFRS 180400Z AUTO 04003KT CAVOK 17/15 Q1018 NOSIG
05:30
V
16 °C 10 km+ - Var Var 2 kt METAR LFRS 180330Z AUTO VRB02KT CAVOK 16/15 Q1018 NOSIG
05:00
V
16 °C 10 km+ - 030° 030° 3 kt METAR LFRS 180300Z AUTO 03003KT CAVOK 16/14 Q1018 NOSIG
04:30
V
16 °C 10 km+ - 050° 050° 2 kt METAR LFRS 180230Z AUTO 05002KT CAVOK 16/14 Q1018 NOSIG
04:00
V
16 °C 10 km+ - Var Var 1 kt METAR LFRS 180200Z AUTO VRB01KT CAVOK 16/14 Q1018 NOSIG
03:30
V
16 °C 10 km+ - Var Var 2 kt METAR LFRS 180130Z AUTO VRB02KT CAVOK 16/14 Q1018 NOSIG
03:00
V
17 °C 10 km+ - Var Var 1 kt METAR LFRS 180100Z AUTO VRB01KT CAVOK 17/14 Q1018 NOSIG
02:30
V
17 °C 10 km+ - 030° 030° 2 kt METAR LFRS 180030Z AUTO 03002KT CAVOK 17/14 Q1018 NOSIG
02:00
V
19 °C 10 km+ - Var Var 2 kt METAR LFRS 180000Z AUTO VRB02KT CAVOK 19/15 Q1018 NOSIG
01:30
V
19 °C 10 km+ - 050° 050° 3 kt METAR LFRS 172330Z AUTO 05003KT CAVOK 19/15 Q1018 NOSIG
01:00
V
20 °C 10 km+ - 040° 040° 3 kt METAR LFRS 172300Z AUTO 04003KT CAVOK 20/15 Q1019 NOSIG
00:30
V
20 °C 10 km+ - Var Var 3 kt METAR LFRS 172230Z AUTO VRB03KT CAVOK 20/14 Q1019 NOSIG
00:00
V
21 °C 10 km+ - 050° 050° 3 kt METAR LFRS 172200Z AUTO 05003KT 010V080 CAVOK 21/14 Q1019 NOSIG

17 luglio 2024

Tempo Codice Tempo meteorologico Temp. Vista Base nuvolosa Vento METAR/SPECI
23:30
V
21 °C 10 km+ - 040° 040° 3 kt METAR LFRS 172130Z AUTO 04003KT 010V070 CAVOK 21/15 Q1019 NOSIG
23:00
V
21 °C 10 km+ - 060° 060° 4 kt METAR LFRS 172100Z AUTO 06004KT CAVOK 21/15 Q1019 NOSIG
22:30
V
22 °C 10 km+ - 040° 040° 3 kt METAR LFRS 172030Z AUTO 04003KT 020V080 CAVOK 22/15 Q1019 NOSIG
22:00
V
22 °C 10 km+ - 050° 050° 4 kt METAR LFRS 172000Z AUTO 05004KT 010V070 CAVOK 22/14 Q1019 NOSIG
21:30
V
23 °C 10 km+ - 050° 050° 4 kt METAR LFRS 171930Z AUTO 05004KT 010V080 CAVOK 23/14 Q1019 NOSIG
21:00
V
23 °C 10 km+ - 060° 060° 6 kt METAR LFRS 171900Z AUTO 06006KT 030V090 CAVOK 23/14 Q1019 NOSIG
20:30
V
24 °C 10 km+ - 050° 050° 5 kt METAR LFRS 171830Z AUTO 05005KT 360V070 CAVOK 24/14 Q1019 NOSIG
20:00
V
24 °C 10 km+ - 060° 060° 6 kt METAR LFRS 171800Z AUTO 06006KT 010V100 CAVOK 24/14 Q1019 NOSIG
19:30
V
24 °C 10 km+ - 050° 050° 6 kt METAR LFRS 171730Z AUTO 05006KT 010V090 CAVOK 24/14 Q1019 NOSIG
19:00
V
25 °C 10 km+ - 120° 120° 6 kt METAR LFRS 171700Z AUTO 12006KT 080V160 9999 FEW045 25/14 Q1019 NOSIG
18:30
V
25 °C 10 km+ - Var Var 3 kt METAR LFRS 171630Z AUTO VRB03KT 9999 FEW045 25/14 Q1019 NOSIG
18:00
V
25 °C 10 km+ - Var Var 3 kt METAR LFRS 171600Z AUTO VRB03KT 9999 SCT044 25/14 Q1019 NOSIG
17:30
V
25 °C 10 km+ - 110° 110° 6 kt METAR LFRS 171530Z AUTO 11006KT 050V160 9999 FEW044 25/14 Q1019 NOSIG
17:00
V
24 °C 10 km+ - 130° 130° 6 kt METAR LFRS 171500Z AUTO 13006KT 090V180 9999 FEW042 24/14 Q1020 NOSIG
16:30
V
24 °C 10 km+ - Var Var 3 kt METAR LFRS 171430Z AUTO VRB03KT 9999 SCT041 24/14 Q1020 NOSIG
16:00
V
24 °C 10 km+ - 130° 130° 4 kt METAR LFRS 171400Z AUTO 13004KT 060V210 9999 SCT039 24/14 Q1020 NOSIG
15:30
V
24 °C 10 km+ - 090° 090° 5 kt METAR LFRS 171330Z AUTO 09005KT 350V140 9999 SCT037 24/15 Q1020 NOSIG
15:00
V
23 °C 10 km+ 3.600 ft 080° 080° 4 kt METAR LFRS 171300Z AUTO 08004KT 040V150 9999 BKN036 23/15 Q1020 NOSIG
14:30
V
22 °C 10 km+ - Var Var 5 kt METAR LFRS 171230Z AUTO VRB05KT 9999 SCT033 22/14 Q1021 NOSIG
14:00
V
22 °C 10 km+ - 100° 100° 4 kt METAR LFRS 171200Z AUTO 10004KT 050V160 9999 FEW028 SCT034 22/15 Q1021 NOSIG
13:30
V
21 °C 10 km+ - 100° 100° 5 kt METAR LFRS 171130Z AUTO 10005KT 050V140 9999 FEW025 21/14 Q1021 NOSIG
13:00
M
20 °C 10 km+ 1.900 ft 090° 090° 4 kt METAR LFRS 171100Z AUTO 09004KT 050V140 9999 BKN019 20/15 Q1021 NOSIG
12:30
M
20 °C 10 km+ 1.600 ft 150° 150° 4 kt METAR LFRS 171030Z AUTO 15004KT 070V230 9999 BKN016 20/15 Q1021 NOSIG
12:00
M
18 °C 10 km+ 1.400 ft 170° 170° 3 kt METAR LFRS 171000Z AUTO 17003KT 080V210 9999 OVC014 18/14 Q1021 BECMG SCT030
11:30
M
18 °C 10 km+ 1.200 ft 130° 130° 5 kt METAR LFRS 170930Z AUTO 13005KT 070V190 9999 OVC012 18/15 Q1021 BECMG SCT030
11:00
M
18 °C 10 km+ 1.200 ft 110° 110° 8 kt METAR LFRS 170900Z AUTO 11008KT 070V140 9999 OVC012 18/15 Q1021 BECMG SCT030
10:30
M
18 °C 10 km+ 1.300 ft 100° 100° 6 kt METAR LFRS 170830Z AUTO 10006KT 070V140 9999 BKN013 18/15 Q1021 BECMG SCT030
10:00
M
17 °C 10 km+ 1.000 ft 110° 110° 6 kt METAR LFRS 170800Z AUTO 11006KT 050V140 9999 BKN010 BKN014 17/15 Q1021 BECMG SCT030
09:30
V
17 °C 10 km+ - 060° 060° 4 kt METAR LFRS 170730Z AUTO 06004KT 030V090 9999 SCT009 17/15 Q1021 NOSIG
09:00
V
16 °C 10 km+ - 050° 050° 3 kt METAR LFRS 170700Z AUTO 05003KT CAVOK 16/15 Q1021 NOSIG
08:30
V
16 °C 10 km+ - Var Var 1 kt METAR LFRS 170630Z AUTO VRB01KT CAVOK 16/15 Q1021 NOSIG
08:00
V
14 °C 9 km - 360° 360° 0 kt METAR LFRS 170600Z AUTO 00000KT 9000 FEW003 14/14 Q1021 TEMPO 4000 BR
07:30
V
13 °C 10 km+ - Var Var 2 kt METAR LFRS 170530Z AUTO VRB02KT 9999 FEW007 13/13 Q1021 TEMPO 4000 BR
07:00
L
13 °C 800 m - 360° 360° 0 kt METAR LFRS 170500Z AUTO 00000KT 6000 0800 R03/3100D R21/P5000 BCFG FEW003 13/12 Q1021 TEMPO 3000 BR VV///
06:30
L
13 °C 700 m - 120° 120° 3 kt METAR LFRS 170430Z AUTO 12003KT 050V150 7000 0700 R03/4300D R21/P5000 BCFG FEW012 13/12 Q1021 TEMPO 3000 BR VV///
06:00
L
13 °C 1,1 km - 110° 110° 2 kt METAR LFRS 170400Z AUTO 11002KT 2700 1100 R03/3300U R21/P5000 BR FEW010 13/12 Q1020 TEMPO 0700 FG VV///
05:30
L
13 °C 650 m 900 ft 160° 160° 2 kt METAR LFRS 170330Z AUTO 16002KT 7000 0650 R03/3200D R21/P5000 BCFG BKN009 13/12 Q1020 TEMPO 0500 FG BKN013
05:00
M
14 °C 9 km 1.200 ft 180° 180° 3 kt METAR LFRS 170300Z AUTO 18003KT 9000 BKN012 BKN026 BKN041 14/13 Q1020 TEMPO 0500 FG
04:30
M
14 °C 10 km+ 1.100 ft 150° 150° 3 kt METAR LFRS 170230Z AUTO 15003KT 9999 OVC011 14/14 Q1020 TEMPO 0500 FG BECMG FEW010
04:00
M
14 °C 9 km 1.300 ft Var Var 2 kt METAR LFRS 170200Z AUTO VRB02KT 9000 BKN013 BKN027 BKN034 14/13 Q1020 TEMPO 0500 FG BECMG FEW010
03:30
I
13 °C 2,1 km 3.200 ft Var Var 3 kt METAR LFRS 170130Z AUTO VRB03KT 9999 2100 FEW009 BKN032 13/13 Q1020 TEMPO 0500 FG
03:00
L
13 °C 600 m - Var Var 3 kt METAR LFRS 170100Z AUTO VRB03KT 7000 0600 R03/3000D R21/P5000 BCFG FEW010 13/12 Q1020 NOSIG
02:30
I
13 °C 1,5 km - 220° 220° 3 kt METAR LFRS 170030Z AUTO 22003KT 8000 1500 FEW010 13/13 Q1020 NOSIG
02:00
V
14 °C 10 km+ - 200° 200° 4 kt METAR LFRS 170000Z AUTO 20004KT CAVOK 14/14 Q1020 NOSIG
01:30
V
14 °C 9 km - Var Var 3 kt METAR LFRS 162330Z AUTO VRB03KT 9000 NSC 14/13 Q1020 NOSIG
01:00
V
14 °C 10 km+ - 240° 240° 4 kt METAR LFRS 162300Z AUTO 24004KT CAVOK 14/13 Q1020 TEMPO 3000 BR
00:30
V
14 °C 10 km+ - 240° 240° 4 kt METAR LFRS 162230Z AUTO 24004KT CAVOK 14/14 Q1020 TEMPO 3000 BR
00:00
V
14 °C 10 km+ - 230° 230° 5 kt METAR LFRS 162200Z AUTO 23005KT CAVOK 14/13 Q1020 NOSIG

16 luglio 2024

Tempo Codice Tempo meteorologico Temp. Vista Base nuvolosa Vento METAR/SPECI
23:30
V
15 °C 10 km+ - 230° 230° 4 kt METAR LFRS 162130Z AUTO 23004KT CAVOK 15/14 Q1020 NOSIG
23:00
V
16 °C 10 km+ - 230° 230° 4 kt METAR LFRS 162100Z AUTO 23004KT CAVOK 16/14 Q1020 NOSIG
22:30
V
16 °C 10 km+ - 250° 250° 4 kt METAR LFRS 162030Z AUTO 25004KT 9999 FEW017 16/14 Q1020 NOSIG
22:00
V
17 °C 10 km+ - 240° 240° 6 kt METAR LFRS 162000Z AUTO 24006KT 9999 FEW018 17/14 Q1019 NOSIG
21:30
V
17 °C 10 km+ 21.000 ft 240° 240° 7 kt METAR LFRS 161930Z AUTO 24007KT 210V270 9999 FEW017 BKN210 17/14 Q1019 NOSIG
21:00
M
18 °C 10 km+ 1.900 ft 230° 230° 7 kt METAR LFRS 161900Z AUTO 23007KT 200V260 9999 BKN019 OVC210 18/15 Q1019 NOSIG
20:30
V
18 °C 10 km+ 21.000 ft 240° 240° 7 kt METAR LFRS 161830Z AUTO 24007KT 9999 SCT019 SCT200 BKN210 18/15 Q1019 NOSIG
20:00
V
19 °C 10 km+ 19.000 ft 250° 250° 8 kt METAR LFRS 161800Z AUTO 25008KT 9999 FEW023 BKN190 19/15 Q1019 NOSIG
19:30
V
19 °C 10 km+ 20.000 ft 280° 280° 7 kt METAR LFRS 161730Z AUTO 28007KT 9999 SCT024 BKN200 BKN220 19/14 Q1019 NOSIG
19:00
V
19 °C 10 km+ 21.000 ft 270° 270° 8 kt METAR LFRS 161700Z AUTO 27008KT 9999 FEW030 SCT036 BKN210 19/14 Q1018 NOSIG
18:30
V
20 °C 10 km+ 23.000 ft 260° 260° 7 kt METAR LFRS 161630Z AUTO 26007KT 230V300 9999 SCT027 SCT038 BKN230 20/14 Q1018 NOSIG
18:00
V
21 °C 10 km+ 3.700 ft 260° 260° 10 kt METAR LFRS 161600Z AUTO 26010KT 210V290 9999 SCT028 BKN037 BKN220 21/14 Q1018 NOSIG
17:30
V
20 °C 10 km+ 21.000 ft 270° 270° 9 kt METAR LFRS 161530Z AUTO 27009KT 230V300 9999 FEW026 SCT032 BKN210 20/14 Q1018 NOSIG
17:00
V
21 °C 10 km+ 3.200 ft 240° 240° 10 kt METAR LFRS 161500Z AUTO 24010KT 210V270 9999 FEW027 BKN032 BKN045 21/13 Q1018 NOSIG
16:30
V
21 °C 10 km+ 4.800 ft 250° 250° 11 kt METAR LFRS 161430Z AUTO 25011KT 210V290 9999 FEW029 SCT042 BKN048 21/14 Q1018 NOSIG
16:00
V
21 °C 10 km+ 5.000 ft 250° 250° 12 kt METAR LFRS 161400Z AUTO 25012KT 9999 FEW030 SCT040 BKN050 21/14 Q1018 NOSIG
15:30
V
21 °C 10 km+ 5.200 ft 250° 250° 11 kt METAR LFRS 161330Z AUTO 25011KT 210V290 9999 SCT028 SCT035 OVC052 21/14 Q1018 NOSIG
15:00
V
21 °C 10 km+ 5.600 ft 270° 270° 12 kt METAR LFRS 161300Z AUTO 27012KT 240V300 9999 SCT030 SCT035 OVC056 21/15 Q1018 NOSIG
14:30
V
21 °C 10 km+ 3.600 ft 260° 260° 13 kt METAR LFRS 161230Z AUTO 26013KT 230V290 9999 SCT030 BKN036 BKN045 21/14 Q1017 NOSIG
14:00
V
21 °C 10 km+ 5.400 ft 250° 250° 12 kt METAR LFRS 161200Z AUTO 25012KT 210V280 9999 FEW028 SCT036 OVC054 21/14 Q1017 NOSIG
13:30
V
21 °C 10 km+ 3.400 ft 260° 260° 11 kt METAR LFRS 161130Z AUTO 26011KT 220V300 9999 SCT028 BKN034 BKN046 21/15 Q1017 NOSIG
13:00
V
21 °C 10 km+ 4.300 ft 250° 250° 11 kt METAR LFRS 161100Z AUTO 25011KT 210V290 9999 SCT022 SCT027 BKN043 21/16 Q1017 NOSIG
12:30
V
20 °C 10 km+ 5.800 ft 260° 260° 11 kt METAR LFRS 161030Z AUTO 26011KT 230V290 9999 SCT023 SCT035 BKN058 20/15 Q1016 NOSIG
12:00
V
20 °C 10 km+ 4.800 ft 250° 250° 10 kt METAR LFRS 161000Z AUTO 25010KT 210V270 9999 SCT019 BKN048 BKN054 20/16 Q1016 NOSIG
11:30
V
18 °C 10 km+ 4.600 ft 250° 250° 10 kt METAR LFRS 160930Z AUTO 25010KT 230V290 9999 SCT015 SCT033 BKN046 18/16 Q1016 NOSIG
11:00
M
18 °C 10 km+ 2.700 ft 270° 270° 7 kt METAR LFRS 160900Z AUTO 27007KT 9999 RA FEW014 SCT020 BKN027 18/16 Q1016 TEMPO 4000 SHRA SCT012 BKN020TCU
10:30
V
18 °C 10 km+ 4.400 ft 260° 260° 8 kt METAR LFRS 160830Z AUTO 26008KT 220V290 9999 FEW014 SCT036 BKN044 18/16 Q1016 TEMPO 4000 SHRA SCT012 BKN020TCU
10:00
V
17 °C 10 km+ 4.200 ft 250° 250° 6 kt METAR LFRS 160800Z AUTO 25006KT 210V280 9999 FEW008/// SCT023/// BKN042/// ///TCU 17/15 Q1016 TEMPO 4000 SHRA
09:30
I
16 °C 4,4 km 1.800 ft 260° 260° 4 kt METAR LFRS 160730Z AUTO 26004KT 190V300 4400 -RA BR FEW007 BKN018 BKN024 16/15 Q1016 TEMPO SHRA SCT012 BKN020TCU
09:00
M
16 °C 10 km+ 2.500 ft 220° 220° 4 kt METAR LFRS 160700Z AUTO 22004KT 180V250 9999 FEW010/// SCT019/// BKN025/// ///TCU 16/15 Q1015 TEMPO 4000 SHRA
08:30
V
17 °C 10 km+ 3.900 ft 240° 240° 4 kt METAR LFRS 160630Z AUTO 24004KT 9999 FEW013/// SCT027/// BKN039/// //////TCU 17/16 Q1015 TEMPO 4000 SHRA
08:00
M
17 °C 5 km 4.200 ft 230° 230° 5 kt METAR LFRS 160600Z AUTO 23005KT 5000 -RA BR FEW020/// BKN042/// BKN054/// ///TCU 17/15 Q1015 TEMPO SHRA
Segnala modifiche